Time;durP1;ratioP1;P1;durP2;ratioP2;P2;SDS_P1;SDS_P2;PMS_P1;PMS_P2;Temp;Humidity;BMP_temperature;BMP_pressure;BME280_temperature;BME280_humidity;BME280_pressure;Samples;Min_cycle;Max_cycle;Signal;HPM_P1;HPM_P2
2022/01/24 00:01:05;;;;;;;32.80;20.52;;;7.20;99.90;;;;;;5045775;28;20099;-44
2022/01/24 00:03:31;;;;;;;33.03;19.70;;;7.20;99.90;;;;;;5045115;28;20477;-43
2022/01/24 00:05:56;;;;;;;34.38;20.20;;;7.20;99.90;;;;;;5046109;28;20040;-43
2022/01/24 00:08:22;;;;;;;38.50;22.33;;;7.20;99.90;;;;;;5046525;28;20028;-43
2022/01/24 00:10:49;;;;;;;36.85;22.02;;;7.20;99.90;;;;;;5045263;28;20530;-43
2022/01/24 00:14:14;;;;;;;29.50;19.15;;;7.20;99.90;;;;;;5046717;28;20021;-42
2022/01/24 00:26:47;;;;;;;38.88;25.60;;;7.10;99.90;;;;;;5049132;28;20036;-42
2022/01/24 00:29:18;;;;;;;37.40;24.20;;;7.10;99.90;;;;;;5049507;28;20542;-43
2022/01/24 00:31:44;;;;;;;38.88;24.25;;;7.00;99.90;;;;;;5047930;28;20048;-43
2022/01/24 00:34:10;;;;;;;32.35;22.27;;;7.00;99.90;;;;;;5049270;28;20086;-43
2022/01/24 00:36:36;;;;;;;30.63;21.20;;;7.00;99.90;;;;;;5049466;28;20021;-44
2022/01/24 00:39:03;;;;;;;29.15;19.65;;;7.00;99.90;;;;;;5048297;28;20029;-43
2022/01/24 00:41:30;;;;;;;31.02;20.73;;;7.10;99.90;;;;;;5048832;28;20025;-43
2022/01/24 00:44:23;;;;;;;29.25;20.38;;;7.00;99.90;;;;;;5048806;28;20033;-47
2022/01/24 00:46:49;;;;;;;27.35;19.13;;;7.00;99.90;;;;;;5048341;28;20029;-43
2022/01/24 00:49:43;;;;;;;29.73;20.15;;;7.00;99.90;;;;;;5049662;28;20606;-43
2022/01/24 00:54:52;;;;;;;25.67;17.38;;;7.00;99.90;;;;;;5049053;28;20194;-43
2022/01/24 00:57:18;;;;;;;25.20;17.20;;;7.00;99.90;;;;;;5049006;28;20780;-44
2022/01/24 00:59:43;;;;;;;24.38;15.95;;;6.90;99.90;;;;;;5048136;28;20024;-42
2022/01/24 01:02:09;;;;;;;19.73;14.48;;;6.90;99.90;;;;;;5048460;28;20020;-42
2022/01/24 01:05:07;;;;;;;21.67;15.63;;;6.90;99.90;;;;;;5048895;28;20029;-43
2022/01/24 01:07:54;;;;;;;23.33;16.55;;;6.90;99.90;;;;;;5048202;28;20056;-43
2022/01/24 01:18:08;;;;;;;23.50;17.10;;;6.90;99.90;;;;;;5047424;28;20576;-43
2022/01/24 01:18:44;;;;;;;22.05;15.82;;;6.90;99.90;;;;;;5048681;28;20040;-43
2022/01/24 01:21:12;;;;;;;24.55;15.85;;;6.90;99.90;;;;;;5047487;28;20017;-43
2022/01/24 01:23:47;;;;;;;21.50;15.77;;;6.90;99.90;;;;;;5048334;28;20078;-44
2022/01/24 01:26:24;;;;;;;20.33;14.00;;;6.80;99.90;;;;;;5048655;28;20085;-44
2022/01/24 01:28:56;;;;;;;22.02;16.38;;;6.90;99.90;;;;;;5047392;28;20033;-44
2022/01/24 01:31:36;;;;;;;25.27;17.35;;;6.80;99.90;;;;;;5048551;28;20067;-43
2022/01/24 01:39:27;;;;;;;21.20;15.82;;;6.80;99.90;;;;;;5047884;28;20417;-44
2022/01/24 01:55:38;;;;;;;20.02;14.23;;;6.80;99.90;;;;;;5047151;28;20036;-43
2022/01/24 01:58:12;;;;;;;19.50;14.63;;;6.80;99.90;;;;;;5047832;28;20047;-43
2022/01/24 02:00:41;;;;;;;20.38;15.05;;;6.80;99.90;;;;;;5047286;28;20018;-43
2022/01/24 02:03:07;;;;;;;22.17;16.50;;;6.80;99.90;;;;;;5046869;28;20028;-42
2022/01/24 02:05:33;;;;;;;22.83;15.77;;;6.80;99.90;;;;;;5047723;28;20035;-43
2022/01/24 02:07:58;;;;;;;20.38;15.02;;;6.80;99.90;;;;;;5047647;28;20457;-42
2022/01/24 02:10:25;;;;;;;21.02;14.88;;;6.80;99.90;;;;;;5046535;28;20025;-44
2022/01/24 02:12:54;;;;;;;19.60;14.07;;;6.80;99.90;;;;;;5047455;28;20550;-43
2022/01/24 02:15:42;;;;;;;22.13;15.00;;;6.90;99.90;;;;;;5047140;28;20472;-43
2022/01/24 02:18:16;;;;;;;21.35;15.80;;;6.90;99.90;;;;;;5046473;28;20450;-43
2022/01/24 02:25:59;;;;;;;18.02;13.32;;;6.90;99.90;;;;;;5047246;28;20035;-43
2022/01/24 02:28:28;;;;;;;17.90;13.05;;;6.80;99.90;;;;;;5047144;28;20035;-44
2022/01/24 02:33:20;;;;;;;18.73;14.20;;;6.80;99.90;;;;;;5047445;28;20032;-43
2022/01/24 02:35:46;;;;;;;19.38;14.27;;;6.80;99.90;;;;;;5046725;28;20469;-43
2022/01/24 02:49:12;;;;;;;20.27;14.40;;;6.80;99.90;;;;;;5046979;28;20040;-43
2022/01/24 02:51:47;;;;;;;19.90;14.00;;;6.80;99.90;;;;;;5045780;28;20040;-44
2022/01/24 02:54:24;;;;;;;19.55;14.07;;;6.80;99.90;;;;;;5046915;28;20082;-43
2022/01/24 02:56:49;;;;;;;21.45;14.35;;;6.80;99.90;;;;;;5046606;28;20083;-44
2022/01/24 02:59:15;;;;;;;21.23;14.35;;;6.80;99.90;;;;;;5046565;28;20037;-43
2022/01/24 03:01:42;;;;;;;21.20;15.13;;;6.80;99.90;;;;;;5047001;28;20025;-42
2022/01/24 03:04:08;;;;;;;21.05;14.27;;;6.80;99.90;;;;;;5046535;28;20416;-43
2022/01/24 03:06:34;;;;;;;19.33;14.57;;;6.80;99.90;;;;;;5046284;28;20490;-43
2022/01/24 03:08:59;;;;;;;21.33;14.20;;;6.80;99.90;;;;;;5046364;28;20025;-43
2022/01/24 03:11:27;;;;;;;20.65;14.50;;;6.80;99.90;;;;;;5046542;28;20025;-44
2022/01/24 03:13:53;;;;;;;20.67;14.93;;;6.70;99.90;;;;;;5035618;28;20067;-43
2022/01/24 03:16:19;;;;;;;19.15;13.68;;;6.80;99.90;;;;;;5046385;28;20044;-44
2022/01/24 03:18:44;;;;;;;21.67;15.32;;;6.70;99.90;;;;;;5046921;28;20033;-43
2022/01/24 03:21:10;;;;;;;23.60;15.10;;;6.70;99.90;;;;;;5045868;28;20025;-44
2022/01/24 03:23:36;;;;;;;22.30;15.98;;;6.70;99.90;;;;;;5044959;28;20021;-43
2022/01/24 03:26:01;;;;;;;21.52;15.30;;;6.70;99.90;;;;;;5046618;28;20107;-43
2022/01/24 03:28:27;;;;;;;22.70;16.30;;;6.70;99.90;;;;;;5045813;28;20035;-43
2022/01/24 03:30:52;;;;;;;23.00;15.70;;;6.70;99.90;;;;;;5046051;28;20029;-43
2022/01/24 03:33:18;;;;;;;23.52;16.60;;;6.70;99.90;;;;;;5046216;28;20094;-42
2022/01/24 03:35:44;;;;;;;23.20;16.13;;;6.60;99.90;;;;;;5045796;28;20790;-43
2022/01/24 03:38:11;;;;;;;25.60;17.00;;;6.60;99.90;;;;;;5046197;28;20033;-43
2022/01/24 03:40:37;;;;;;;23.52;16.27;;;6.60;99.90;;;;;;5045864;28;20053;-43
2022/01/24 03:43:02;;;;;;;22.77;15.95;;;6.60;99.90;;;;;;5046596;28;20065;-43
2022/01/24 03:45:46;;;;;;;22.65;15.82;;;6.60;99.90;;;;;;5045976;28;20469;-42
2022/01/24 03:48:37;;;;;;;19.90;14.32;;;6.60;99.90;;;;;;5045759;28;20048;-43
2022/01/24 03:51:03;;;;;;;20.77;14.50;;;6.60;99.90;;;;;;5048904;28;20041;-44
2022/01/24 03:53:28;;;;;;;23.63;16.17;;;6.50;99.90;;;;;;5050056;28;20033;-43
2022/01/24 03:55:54;;;;;;;23.65;15.68;;;6.50;99.90;;;;;;5049619;28;20037;-44
2022/01/24 03:58:19;;;;;;;22.17;15.77;;;6.50;99.90;;;;;;5050100;28;20033;-44
2022/01/24 04:00:45;;;;;;;21.17;15.38;;;6.50;99.90;;;;;;5050253;28;20403;-43
2022/01/24 04:03:11;;;;;;;21.08;15.07;;;6.50;99.90;;;;;;5049460;28;20491;-43
2022/01/24 04:05:37;;;;;;;21.80;16.20;;;6.50;99.90;;;;;;5049618;28;20605;-43
2022/01/24 04:08:03;;;;;;;22.80;16.05;;;6.50;99.90;;;;;;5049699;28;20766;-42
2022/01/24 04:10:28;;;;;;;24.02;15.75;;;6.50;99.90;;;;;;5049102;28;20017;-42
2022/01/24 04:12:54;;;;;;;22.35;15.63;;;6.50;99.90;;;;;;5049657;28;20039;-42
2022/01/24 04:15:42;;;;;;;21.67;15.20;;;6.50;99.90;;;;;;5048924;28;20016;-42
2022/01/24 04:23:39;;;;;;;22.67;15.25;;;6.50;99.90;;;;;;5048799;28;20091;-42
2022/01/24 04:26:05;;;;;;;22.48;15.85;;;6.50;99.90;;;;;;5049932;28;20025;-43
2022/01/24 04:28:30;;;;;;;22.10;15.02;;;6.50;99.90;;;;;;5049559;28;20028;-43
2022/01/24 04:30:56;;;;;;;24.05;16.23;;;6.50;99.90;;;;;;5049138;28;20484;-43
2022/01/24 04:33:21;;;;;;;21.33;14.73;;;6.50;99.90;;;;;;5048580;28;20074;-43
2022/01/24 04:35:47;;;;;;;21.50;15.02;;;6.50;99.90;;;;;;5039591;28;20038;-43
2022/01/24 04:38:13;;;;;;;19.75;14.35;;;6.50;99.90;;;;;;5048365;28;20025;-43
2022/01/24 04:40:38;;;;;;;21.70;14.23;;;6.60;99.90;;;;;;5049348;28;20036;-43
2022/01/24 04:43:27;;;;;;;22.15;14.82;;;6.60;99.90;;;;;;5049299;28;20124;-42
2022/01/24 04:51:03;;;;;;;23.15;15.35;;;6.50;99.90;;;;;;5048632;28;20129;-43
2022/01/24 04:53:48;;;;;;;22.25;14.70;;;6.60;99.90;;;;;;5049044;28;20037;-43
2022/01/24 04:56:13;;;;;;;20.50;14.30;;;6.60;99.90;;;;;;5049031;28;20025;-43
2022/01/24 04:58:39;;;;;;;22.15;15.30;;;6.60;99.90;;;;;;5048074;28;20174;-44
2022/01/24 05:01:04;;;;;;;22.30;14.70;;;6.60;99.90;;;;;;5048730;28;20021;-42
2022/01/24 05:03:30;;;;;;;21.33;14.85;;;6.60;99.90;;;;;;5048798;28;20025;-41
2022/01/24 05:05:55;;;;;;;19.90;13.88;;;6.50;99.90;;;;;;5047945;28;20384;-43
2022/01/24 05:08:21;;;;;;;22.42;14.50;;;6.50;99.90;;;;;;5048869;28;20037;-43
2022/01/24 05:11:09;;;;;;;19.98;14.57;;;6.50;99.90;;;;;;5048241;28;20048;-43
2022/01/24 05:24:33;;;;;;;18.60;13.25;;;6.40;99.90;;;;;;5028667;28;20029;-43
2022/01/24 05:26:58;;;;;;;20.23;14.05;;;6.40;99.90;;;;;;5042158;28;20025;-42
2022/01/24 05:29:25;;;;;;;17.88;13.57;;;6.50;99.90;;;;;;5048224;28;20472;-43
2022/01/24 05:31:50;;;;;;;21.90;15.07;;;6.40;99.90;;;;;;5047828;28;20033;-42
2022/01/24 05:34:16;;;;;;;19.58;13.90;;;6.40;99.90;;;;;;5047448;28;20028;-43
2022/01/24 05:36:42;;;;;;;20.27;14.85;;;6.40;99.90;;;;;;5048360;28;20116;-44
2022/01/24 05:39:08;;;;;;;21.80;13.90;;;6.40;99.90;;;;;;5048256;28;20530;-42
2022/01/24 05:41:35;;;;;;;19.42;13.50;;;6.40;99.90;;;;;;5047592;28;20029;-43
2022/01/24 05:44:01;;;;;;;21.00;14.15;;;6.40;99.90;;;;;;5047958;28;20075;-42
2022/01/24 05:46:26;;;;;;;20.45;14.45;;;6.40;99.90;;;;;;5047895;28;20029;-45
2022/01/24 05:48:52;;;;;;;18.58;13.73;;;6.40;99.90;;;;;;5047481;28;20029;-42
2022/01/24 05:51:20;;;;;;;20.35;12.65;;;6.40;99.90;;;;;;5047719;28;20125;-43
2022/01/24 05:53:46;;;;;;;22.48;13.40;;;6.40;99.90;;;;;;5044292;28;20039;-43
2022/01/24 05:56:11;;;;;;;20.45;13.57;;;6.40;99.90;;;;;;5047295;28;20104;-43
2022/01/24 05:58:37;;;;;;;19.08;13.38;;;6.40;99.90;;;;;;5047596;28;20033;-44
2022/01/24 06:01:02;;;;;;;18.98;13.93;;;6.40;99.90;;;;;;5047818;28;20032;-43
2022/01/24 06:03:28;;;;;;;20.10;13.50;;;6.40;99.90;;;;;;5046996;28;20024;-43
2022/01/24 06:05:53;;;;;;;21.02;15.00;;;6.40;99.90;;;;;;5047527;28;20029;-43
2022/01/24 06:08:19;;;;;;;19.80;14.77;;;6.30;99.90;;;;;;5046685;28;20492;-43
2022/01/24 06:10:46;;;;;;;19.25;13.77;;;6.30;99.90;;;;;;5047681;28;20028;-43
2022/01/24 06:13:12;;;;;;;19.45;14.52;;;6.30;99.90;;;;;;5046283;28;20083;-43
2022/01/24 06:15:37;;;;;;;20.17;14.00;;;6.30;99.90;;;;;;5046930;28;20072;-44
2022/01/24 06:18:03;;;;;;;18.90;13.57;;;6.30;99.90;;;;;;5047199;28;20112;-43
2022/01/24 06:20:28;;;;;;;18.60;13.75;;;6.30;99.90;;;;;;5047285;28;20033;-43
2022/01/24 06:22:54;;;;;;;18.02;12.60;;;6.30;99.90;;;;;;5046699;28;20028;-43
2022/01/24 06:25:23;;;;;;;17.85;12.63;;;6.30;99.90;;;;;;5047313;28;20029;-42
2022/01/24 06:27:49;;;;;;;17.85;13.35;;;6.30;99.90;;;;;;5047259;28;20033;-42
2022/01/24 06:30:15;;;;;;;20.75;13.98;;;6.30;99.90;;;;;;5047172;28;20025;-43
2022/01/24 06:32:40;;;;;;;18.38;13.07;;;6.30;99.90;;;;;;5046669;28;20071;-42
2022/01/24 06:35:08;;;;;;;19.48;12.90;;;6.20;99.90;;;;;;5047196;28;20021;-43
2022/01/24 06:37:33;;;;;;;17.00;12.70;;;6.20;99.90;;;;;;5046916;28;20029;-44
2022/01/24 06:39:59;;;;;;;15.57;12.00;;;6.20;99.90;;;;;;5046904;28;20044;-44
2022/01/24 06:42:25;;;;;;;17.67;13.20;;;6.20;99.90;;;;;;5046953;28;20025;-43
2022/01/24 06:44:52;;;;;;;21.23;13.48;;;6.20;99.90;;;;;;5046447;28;20029;-43
2022/01/24 06:47:18;;;;;;;18.30;13.68;;;6.20;99.90;;;;;;5027546;28;20025;-43
2022/01/24 06:49:44;;;;;;;18.15;13.23;;;6.20;99.90;;;;;;5040677;28;20037;-43
2022/01/24 06:52:09;;;;;;;16.58;11.95;;;6.20;99.90;;;;;;5046642;28;20029;-43
2022/01/24 06:54:37;;;;;;;17.45;13.07;;;6.20;99.90;;;;;;5046620;28;20021;-44
2022/01/24 06:57:03;;;;;;;18.35;13.55;;;6.10;99.90;;;;;;5047771;28;20488;-43
2022/01/24 06:59:29;;;;;;;17.45;12.95;;;6.10;99.90;;;;;;5045996;28;20104;-43
2022/01/24 07:01:55;;;;;;;19.02;13.20;;;6.10;99.90;;;;;;5046922;28;20090;-43
2022/01/24 07:04:20;;;;;;;18.88;13.15;;;6.10;99.90;;;;;;5044192;28;20024;-44
2022/01/24 07:06:46;;;;;;;20.33;13.45;;;6.20;99.90;;;;;;5043491;28;20043;-43
2022/01/24 07:09:13;;;;;;;20.27;14.55;;;6.10;99.90;;;;;;5045605;28;20258;-43
2022/01/24 07:11:39;;;;;;;19.80;14.15;;;6.10;99.90;;;;;;5045368;28;20029;-43
2022/01/24 07:14:10;;;;;;;17.80;13.93;;;6.10;99.90;;;;;;5046223;28;20086;-43
2022/01/24 07:17:04;;;;;;;20.00;14.48;;;6.10;99.90;;;;;;5042604;28;20439;-43
2022/01/24 07:19:27;;;;;;;18.88;13.48;;;6.10;99.90;;;;;;5043400;28;20543;-43
2022/01/24 07:21:53;;;;;;;18.02;13.85;;;6.10;99.90;;;;;;5038210;28;20021;-42
2022/01/24 07:24:19;;;;;;;19.42;14.40;;;6.10;99.90;;;;;;5048476;28;20033;-43
2022/01/24 07:26:45;;;;;;;15.65;12.88;;;6.10;99.90;;;;;;5047971;28;20048;-42
2022/01/24 07:29:10;;;;;;;18.38;13.80;;;6.10;99.90;;;;;;5049356;28;20029;-42
2022/01/24 07:31:36;;;;;;;17.33;13.70;;;6.10;99.90;;;;;;5049115;28;20040;-42
2022/01/24 07:34:01;;;;;;;20.35;13.93;;;6.10;99.90;;;;;;5049316;28;20489;-43
2022/01/24 07:36:27;;;;;;;21.02;14.98;;;6.10;99.90;;;;;;5050399;28;20110;-42
2022/01/24 07:38:52;;;;;;;17.98;13.43;;;6.10;99.90;;;;;;5050684;28;20433;-43
2022/01/24 07:41:24;;;;;;;20.48;15.05;;;6.10;99.90;;;;;;5049575;28;20028;-43
2022/01/24 07:43:50;;;;;;;18.10;13.45;;;6.10;99.90;;;;;;5049849;28;20036;-44
2022/01/24 07:46:16;;;;;;;17.98;13.48;;;6.10;99.90;;;;;;5050727;28;20092;-43
2022/01/24 07:48:42;;;;;;;17.95;13.88;;;6.10;99.90;;;;;;5049033;28;20705;-43
2022/01/24 07:51:08;;;;;;;18.92;13.27;;;6.10;99.90;;;;;;5049558;28;20098;-43
2022/01/24 07:53:33;;;;;;;17.92;13.60;;;6.10;99.90;;;;;;5049712;28;20037;-44
2022/01/24 07:55:59;;;;;;;18.02;13.15;;;6.20;99.90;;;;;;5049617;28;20547;-43
2022/01/24 07:58:25;;;;;;;15.63;12.27;;;6.20;99.90;;;;;;5050004;28;20068;-43
2022/01/24 08:00:50;;;;;;;15.90;12.25;;;6.20;99.90;;;;;;5049142;28;20029;-43
2022/01/24 08:03:16;;;;;;;16.25;12.20;;;6.20;99.90;;;;;;5046613;28;20051;-43
2022/01/24 08:05:42;;;;;;;16.42;12.20;;;6.20;99.90;;;;;;5049751;28;20056;-43
2022/01/24 08:08:08;;;;;;;17.50;12.70;;;6.20;99.90;;;;;;5048783;28;20021;-43
2022/01/24 08:10:34;;;;;;;18.10;13.27;;;6.20;99.90;;;;;;5049761;28;20032;-43
2022/01/24 08:13:00;;;;;;;16.88;13.57;;;6.20;99.90;;;;;;5049097;28;20047;-43
2022/01/24 08:15:26;;;;;;;17.73;12.95;;;6.20;99.90;;;;;;5049176;28;20025;-44
2022/01/24 08:17:51;;;;;;;17.90;12.60;;;6.30;99.90;;;;;;5042262;28;20044;-43
2022/01/24 08:20:17;;;;;;;16.48;12.77;;;6.20;99.90;;;;;;5049493;28;20036;-42
2022/01/24 08:22:43;;;;;;;18.60;13.68;;;6.20;99.90;;;;;;5047786;28;20437;-44
2022/01/24 08:25:10;;;;;;;19.60;14.95;;;6.20;99.90;;;;;;5049678;28;20136;-43
2022/01/24 08:27:37;;;;;;;20.25;14.13;;;6.20;99.90;;;;;;5049019;28;20036;-44
2022/01/24 08:30:08;;;;;;;17.42;14.40;;;6.20;99.90;;;;;;5048976;28;20025;-44
2022/01/24 08:32:34;;;;;;;18.17;14.68;;;6.20;99.90;;;;;;5048615;28;20036;-44
2022/01/24 08:35:00;;;;;;;15.55;13.02;;;6.30;99.90;;;;;;5047703;28;20074;-43
2022/01/24 08:37:26;;;;;;;15.25;11.77;;;6.30;99.90;;;;;;5048061;28;20456;-44
2022/01/24 08:39:51;;;;;;;17.65;12.70;;;6.20;99.90;;;;;;5049291;28;20017;-44
2022/01/24 08:42:30;;;;;;;16.50;11.90;;;6.30;99.90;;;;;;5049209;28;20028;-43
2022/01/24 08:47:23;;;;;;;13.07;10.40;;;6.30;99.90;;;;;;5049512;28;20043;-43
2022/01/24 08:49:49;;;;;;;13.95;11.05;;;6.30;99.90;;;;;;5048823;28;20021;-43
2022/01/24 08:52:14;;;;;;;14.43;10.23;;;6.30;99.90;;;;;;5048379;28;20033;-43
2022/01/24 08:54:40;;;;;;;12.07;9.35;;;6.30;99.90;;;;;;5048596;28;20020;-42
2022/01/24 08:57:07;;;;;;;11.30;9.90;;;6.40;99.90;;;;;;5047905;28;20032;-42
2022/01/24 08:59:33;;;;;;;13.02;9.77;;;6.40;99.90;;;;;;5048032;28;20039;-42
2022/01/24 09:01:58;;;;;;;12.50;9.25;;;6.40;99.90;;;;;;5047112;28;20017;-42
2022/01/24 09:04:24;;;;;;;11.63;9.65;;;6.40;99.90;;;;;;5047190;28;20024;-44
2022/01/24 09:06:50;;;;;;;11.70;9.48;;;6.40;99.90;;;;;;5048743;28;20025;-43
2022/01/24 09:09:16;;;;;;;11.75;9.23;;;6.40;99.90;;;;;;5049042;28;20028;-43
2022/01/24 09:11:42;;;;;;;12.82;9.68;;;6.40;99.90;;;;;;5048054;28;20029;-42
2022/01/24 09:14:09;;;;;;;11.30;9.40;;;6.40;99.90;;;;;;5047735;28;20032;-43
2022/01/24 09:16:36;;;;;;;13.38;10.73;;;6.50;99.90;;;;;;5049251;28;20025;-43
2022/01/24 09:19:03;;;;;;;13.43;11.30;;;6.50;99.90;;;;;;5045158;28;20060;-43
2022/01/24 09:21:29;;;;;;;13.18;11.20;;;6.50;99.90;;;;;;5048129;28;20021;-43
2022/01/24 09:23:55;;;;;;;12.60;9.57;;;6.40;99.90;;;;;;5048040;28;20013;-44
2022/01/24 09:26:20;;;;;;;10.45;8.63;;;6.50;99.90;;;;;;5048024;28;20032;-43
2022/01/24 09:28:46;;;;;;;14.13;9.60;;;6.50;99.90;;;;;;5048018;28;20024;-43
2022/01/24 09:31:12;;;;;;;10.23;8.45;;;6.50;99.90;;;;;;5048142;28;20029;-43
2022/01/24 09:33:38;;;;;;;11.00;9.02;;;6.50;99.90;;;;;;5046974;28;20125;-43
2022/01/24 09:36:04;;;;;;;11.52;9.20;;;6.50;99.90;;;;;;5047841;28;20484;-43
2022/01/24 09:38:32;;;;;;;13.20;11.23;;;6.60;99.90;;;;;;5048423;28;20123;-44
2022/01/24 09:40:59;;;;;;;12.55;10.30;;;6.60;99.90;;;;;;5047037;28;20021;-43
2022/01/24 09:43:25;;;;;;;13.32;11.35;;;6.60;99.90;;;;;;5047736;28;20040;-44
2022/01/24 09:45:51;;;;;;;12.93;10.57;;;6.60;99.90;;;;;;5047829;28;20380;-44
2022/01/24 09:48:17;;;;;;;12.27;10.38;;;6.50;99.90;;;;;;5046755;28;20028;-44
2022/01/24 09:50:45;;;;;;;13.57;10.70;;;6.60;99.90;;;;;;5047238;28;20086;-42
2022/01/24 09:53:15;;;;;;;10.32;9.23;;;6.60;99.90;;;;;;5047911;28;20086;-42
2022/01/24 09:55:41;;;;;;;11.07;9.27;;;6.60;99.90;;;;;;5046433;28;20017;-44
2022/01/24 09:58:06;;;;;;;13.07;10.45;;;6.70;99.90;;;;;;5047771;28;20036;-43
2022/01/24 10:00:32;;;;;;;14.38;10.63;;;6.70;99.90;;;;;;5046525;28;20024;-43
2022/01/24 10:02:58;;;;;;;16.08;11.07;;;6.70;99.90;;;;;;5046691;28;20036;-43
2022/01/24 10:05:27;;;;;;;12.93;11.27;;;6.70;99.90;;;;;;5046945;28;20028;-43
2022/01/24 10:07:58;;;;;;;12.23;10.77;;;6.70;99.90;;;;;;5047095;28;20040;-44
2022/01/24 10:10:47;;;;;;;11.98;10.05;;;6.70;99.90;;;;;;5047473;28;20636;-43
2022/01/24 10:16:36;;;;;;;12.63;11.02;;;6.70;99.90;;;;;;5046696;28;20032;-43
2022/01/24 10:19:21;;;;;;;13.00;10.65;;;6.70;99.90;;;;;;5047020;28;20029;-42
2022/01/24 10:21:53;;;;;;;12.95;11.45;;;6.80;99.90;;;;;;5046487;28;20025;-43
2022/01/24 10:24:33;;;;;;;12.40;11.02;;;6.70;99.90;;;;;;5047177;28;20115;-43
2022/01/24 10:27:20;;;;;;;13.32;11.15;;;6.70;99.90;;;;;;5047169;28;20039;-43
2022/01/24 10:29:49;;;;;;;16.38;12.93;;;6.80;99.90;;;;;;5026502;28;20025;-46
2022/01/24 10:32:39;;;;;;;16.30;12.88;;;6.80;99.90;;;;;;5041801;28;20473;-43
2022/01/24 10:35:26;;;;;;;16.67;12.63;;;6.70;99.90;;;;;;5026830;28;20069;-43
2022/01/24 10:38:17;;;;;;;16.98;13.23;;;6.80;99.90;;;;;;5044846;28;20037;-43
2022/01/24 10:40:55;;;;;;;13.70;11.73;;;6.80;99.90;;;;;;5043907;28;20145;-44
2022/01/24 10:43:26;;;;;;;14.27;11.80;;;6.80;99.90;;;;;;5045735;28;20029;-42
2022/01/24 10:45:54;;;;;;;14.77;12.65;;;6.80;99.90;;;;;;5047217;28;20075;-42
2022/01/24 10:48:31;;;;;;;16.13;12.60;;;6.80;99.90;;;;;;5047136;28;20037;-43
2022/01/24 10:51:18;;;;;;;21.67;15.95;;;6.80;99.90;;;;;;5046127;28;20126;-42
2022/01/24 10:53:53;;;;;;;16.65;13.65;;;6.80;99.90;;;;;;5046394;28;20078;-43
2022/01/24 10:56:43;;;;;;;16.02;13.57;;;6.90;99.90;;;;;;5047458;28;20021;-42
2022/01/24 10:59:11;;;;;;;15.80;14.18;;;6.90;99.90;;;;;;5043925;28;20622;-43
2022/01/24 11:01:39;;;;;;;15.85;13.93;;;6.90;99.90;;;;;;5042369;28;20461;-43
2022/01/24 11:04:07;;;;;;;16.15;13.35;;;6.90;99.90;;;;;;5045501;28;20127;-43
2022/01/24 11:06:39;;;;;;;14.20;12.70;;;6.90;99.90;;;;;;5046586;28;20095;-43
2022/01/24 11:09:10;;;;;;;14.35;12.90;;;6.90;99.90;;;;;;5046154;28;20058;-43
2022/01/24 11:11:36;;;;;;;14.95;13.35;;;6.90;99.90;;;;;;5046148;28;20036;-42
2022/01/24 11:14:01;;;;;;;13.52;12.13;;;6.90;99.90;;;;;;5046030;28;20029;-41
2022/01/24 11:16:27;;;;;;;12.55;11.25;;;6.90;99.90;;;;;;5046429;28;20112;-43
2022/01/24 11:18:53;;;;;;;13.80;12.32;;;6.90;99.90;;;;;;5045484;28;20029;-43
2022/01/24 11:21:19;;;;;;;12.95;11.65;;;6.80;99.90;;;;;;5047003;28;20087;-43
2022/01/24 11:23:45;;;;;;;12.68;11.43;;;6.80;99.90;;;;;;5046174;28;20036;-43
2022/01/24 11:26:12;;;;;;;11.27;10.07;;;6.80;99.90;;;;;;5045262;28;20014;-43
2022/01/24 11:28:38;;;;;;;12.23;11.02;;;6.90;99.90;;;;;;5046510;28;20024;-44
2022/01/24 11:31:15;;;;;;;11.43;10.30;;;6.80;99.90;;;;;;5046336;28;20025;-43
2022/01/24 11:33:53;;;;;;;11.85;10.65;;;6.90;99.90;;;;;;5045455;28;20064;-42
2022/01/24 11:36:19;;;;;;;12.77;11.18;;;6.90;99.90;;;;;;5046328;28;20027;-43
2022/01/24 11:38:45;;;;;;;11.15;9.88;;;6.90;99.90;;;;;;5046584;28;20045;-44
2022/01/24 11:41:23;;;;;;;11.38;9.88;;;6.90;99.90;;;;;;5045449;28;20025;-43
2022/01/24 11:43:53;;;;;;;13.02;11.63;;;6.90;99.90;;;;;;5046053;28;20037;-43
2022/01/24 11:46:48;;;;;;;12.45;10.85;;;6.90;99.90;;;;;;5045788;28;20021;-43
2022/01/24 11:49:14;;;;;;;11.43;10.13;;;6.90;99.90;;;;;;5046502;28;20116;-43
2022/01/24 11:51:43;;;;;;;11.07;9.98;;;6.90;99.90;;;;;;5045752;28;20155;-43
2022/01/24 11:54:31;;;;;;;12.98;10.02;;;6.90;99.90;;;;;;5045487;28;20279;-42
2022/01/24 11:57:15;;;;;;;11.43;10.32;;;7.00;99.90;;;;;;5046207;28;20032;-43
2022/01/24 11:59:41;;;;;;;10.05;9.05;;;7.00;99.90;;;;;;5045909;28;20035;-44
2022/01/24 12:02:13;;;;;;;10.18;9.18;;;7.00;99.90;;;;;;5045531;28;20140;-43
2022/01/24 12:04:49;;;;;;;11.60;10.40;;;7.00;99.90;;;;;;5045724;28;20104;-43
2022/01/24 12:07:20;;;;;;;10.95;9.80;;;7.10;99.90;;;;;;5045702;28;20117;-45
2022/01/24 12:09:46;;;;;;;11.07;9.98;;;7.00;99.90;;;;;;5045689;28;20021;-43
2022/01/24 12:12:48;;;;;;;10.40;9.40;;;7.10;99.90;;;;;;5048694;28;20091;-43
2022/01/24 12:15:43;;;;;;;11.23;9.98;;;7.10;99.90;;;;;;5048412;28;20025;-44
2022/01/24 12:18:33;;;;;;;12.05;9.90;;;7.10;99.90;;;;;;5044122;28;20040;-42
2022/01/24 12:21:05;;;;;;;10.07;9.00;;;7.10;99.90;;;;;;5046544;28;20033;-43
2022/01/24 12:23:46;;;;;;;11.40;10.20;;;7.10;99.90;;;;;;5049043;28;20041;-43
2022/01/24 12:26:11;;;;;;;11.60;10.00;;;7.00;99.90;;;;;;5048386;28;20670;-44
2022/01/24 12:28:43;;;;;;;11.50;9.93;;;7.10;99.90;;;;;;5048066;28;20139;-43
2022/01/24 12:31:17;;;;;;;10.90;9.88;;;7.10;99.90;;;;;;5049087;28;20029;-43
2022/01/24 12:33:53;;;;;;;10.55;9.45;;;7.10;99.90;;;;;;5048510;28;20037;-44
2022/01/24 12:36:47;;;;;;;11.07;9.98;;;7.10;99.90;;;;;;5048471;28;20029;-45
2022/01/24 12:39:40;;;;;;;10.65;9.55;;;7.10;99.90;;;;;;5029341;28;20412;-44
2022/01/24 12:42:18;;;;;;;11.02;9.93;;;7.20;99.90;;;;;;5043874;28;20112;-43
2022/01/24 12:47:22;;;;;;;12.63;10.75;;;7.20;99.90;;;;;;5046864;28;20106;-42
2022/01/24 12:49:50;;;;;;;11.73;10.43;;;7.20;99.90;;;;;;5043834;28;20055;-43
2022/01/24 12:52:23;;;;;;;12.55;11.35;;;7.20;99.90;;;;;;5048324;28;20045;-43
2022/01/24 12:54:50;;;;;;;9.95;8.95;;;7.20;99.90;;;;;;5048786;28;20016;-42
2022/01/24 12:57:20;;;;;;;12.20;11.00;;;7.20;99.90;;;;;;5047538;28;20540;-44
2022/01/24 13:00:13;;;;;;;10.68;9.57;;;7.20;99.90;;;;;;5028630;28;20044;-45
2022/01/24 13:02:39;;;;;;;14.07;12.13;;;7.20;99.90;;;;;;5043076;28;20110;-43
2022/01/24 13:05:07;;;;;;;13.65;12.35;;;7.20;99.90;;;;;;5047352;28;20034;-43
2022/01/24 13:07:34;;;;;;;11.43;10.30;;;7.20;99.90;;;;;;5048045;28;20111;-43
2022/01/24 13:10:08;;;;;;;11.90;10.65;;;7.20;99.90;;;;;;5048079;28;20025;-45
2022/01/24 13:12:35;;;;;;;13.95;12.48;;;7.20;99.90;;;;;;5047308;28;20033;-43
2022/01/24 13:15:04;;;;;;;12.90;11.07;;;7.20;99.90;;;;;;5048272;28;20031;-42
2022/01/24 13:23:06;;;;;;;21.63;15.20;;;7.20;99.90;;;;;;5047718;28;20095;-42
2022/01/24 13:25:36;;;;;;;23.25;15.85;;;7.20;99.90;;;;;;5047381;28;20028;-43
2022/01/24 13:28:13;;;;;;;32.55;19.00;;;7.30;99.90;;;;;;5047023;28;20024;-43
2022/01/24 13:30:42;;;;;;;34.95;20.85;;;7.20;99.90;;;;;;5048235;28;20116;-43
2022/01/24 13:33:14;;;;;;;38.95;22.20;;;7.30;99.90;;;;;;5046632;28;20037;-42
2022/01/24 13:35:51;;;;;;;39.58;21.73;;;7.30;99.90;;;;;;5047921;28;20021;-43
2022/01/24 13:38:19;;;;;;;29.50;18.92;;;7.30;99.90;;;;;;5047623;28;20025;-43
2022/01/24 13:43:28;;;;;;;23.42;16.45;;;7.30;99.90;;;;;;5044371;28;20048;-44
2022/01/24 13:45:54;;;;;;;19.90;14.80;;;7.30;99.90;;;;;;5042560;28;20108;-43
2022/01/24 13:48:22;;;;;;;23.67;15.68;;;7.30;99.90;;;;;;5047198;28;20045;-43
2022/01/24 13:50:56;;;;;;;24.30;17.75;;;7.30;99.90;;;;;;5047888;28;20507;-42
2022/01/24 13:53:34;;;;;;;21.00;16.23;;;7.30;99.90;;;;;;5043342;28;20040;-44
2022/01/24 13:56:14;;;;;;;19.40;16.15;;;7.30;99.90;;;;;;5046966;28;20567;-43
2022/01/24 13:58:39;;;;;;;18.38;16.13;;;7.30;99.90;;;;;;5047205;28;20028;-43
2022/01/24 14:01:05;;;;;;;17.75;15.85;;;7.30;99.90;;;;;;5047184;28;20521;-43
2022/01/24 14:03:30;;;;;;;16.80;15.00;;;7.20;99.90;;;;;;5046784;28;20070;-43
2022/01/24 14:06:15;;;;;;;17.42;15.73;;;7.20;99.90;;;;;;5047812;28;20048;-44
2022/01/24 14:08:42;;;;;;;17.48;15.68;;;7.20;99.90;;;;;;5046290;28;20048;-43
2022/01/24 14:11:16;;;;;;;16.30;14.60;;;7.20;99.90;;;;;;5047139;28;20472;-43
2022/01/24 14:13:54;;;;;;;16.48;14.77;;;7.30;99.90;;;;;;5046176;28;20633;-43
2022/01/24 14:19:31;;;;;;;17.05;14.57;;;7.30;99.90;;;;;;5036297;28;20614;-43
2022/01/24 14:22:16;;;;;;;17.73;15.93;;;7.30;99.90;;;;;;5046247;28;20761;-43
2022/01/24 14:24:54;;;;;;;16.00;14.43;;;7.30;99.90;;;;;;5046810;28;20383;-43
2022/01/24 14:27:38;;;;;;;17.85;15.95;;;7.30;99.90;;;;;;5047509;28;20048;-43
2022/01/24 14:30:05;;;;;;;18.17;16.30;;;7.30;99.90;;;;;;5046610;28;20049;-43